Time;durP1;ratioP1;P1;durP2;ratioP2;P2;SDS_P1;SDS_P2;PMS_P1;PMS_P2;Temp;Humidity;BMP_temperature;BMP_pressure;BME280_temperature;BME280_humidity;BME280_pressure;Samples;Min_cycle;Max_cycle;Signal;HPM_P1;HPM_P2
2022/10/30 00:00:40;;;;;;;52.67;29.65;;;11.50;99.90;;;;;;4991195;28;20634;-60
2022/10/30 00:03:10;;;;;;;52.00;28.88;;;11.50;99.90;;;;;;4991041;28;20022;-62
2022/10/30 00:05:38;;;;;;;60.97;32.63;;;11.50;99.90;;;;;;4991090;28;20030;-64
2022/10/30 00:08:04;;;;;;;54.58;28.25;;;11.50;99.90;;;;;;4990688;28;20020;-61
2022/10/30 00:10:30;;;;;;;50.72;28.38;;;11.50;99.90;;;;;;4990962;28;20065;-62
2022/10/30 00:12:56;;;;;;;43.75;28.63;;;11.50;99.90;;;;;;4990841;28;20030;-63
2022/10/30 00:15:22;;;;;;;50.88;28.27;;;11.50;99.90;;;;;;4990979;28;20026;-62
2022/10/30 00:17:48;;;;;;;52.08;27.80;;;11.40;99.90;;;;;;4990497;28;20437;-60
2022/10/30 00:20:13;;;;;;;48.15;29.33;;;11.40;99.90;;;;;;4990859;28;20033;-62
2022/10/30 00:22:39;;;;;;;55.85;29.40;;;11.40;99.90;;;;;;4990679;28;20046;-62
2022/10/30 00:25:05;;;;;;;47.92;28.55;;;11.40;99.90;;;;;;4990543;28;20736;-64
2022/10/30 00:27:31;;;;;;;53.15;30.27;;;11.40;99.90;;;;;;4990542;28;20065;-64
2022/10/30 00:29:56;;;;;;;52.90;30.23;;;11.40;99.90;;;;;;4990427;28;20018;-64
2022/10/30 00:32:22;;;;;;;50.05;27.52;;;11.50;99.90;;;;;;4990939;28;20026;-60
2022/10/30 00:34:47;;;;;;;55.60;30.48;;;11.40;99.90;;;;;;4990758;28;20054;-60
2022/10/30 00:37:13;;;;;;;51.83;31.02;;;11.40;99.90;;;;;;4989063;28;20041;-63
2022/10/30 00:39:38;;;;;;;52.00;30.77;;;11.40;99.90;;;;;;4971977;28;20023;-63
2022/10/30 00:42:04;;;;;;;56.83;33.95;;;11.40;99.90;;;;;;4971001;28;20656;-60
2022/10/30 00:44:39;;;;;;;54.53;31.70;;;11.50;99.90;;;;;;4971134;28;20105;-61
2022/10/30 00:47:36;;;;;;;52.75;32.22;;;11.40;99.90;;;;;;4970976;28;20540;-64
2022/10/30 00:50:07;;;;;;;47.15;28.88;;;11.30;99.90;;;;;;4969461;28;20050;-63
2022/10/30 00:52:39;;;;;;;48.60;28.65;;;11.30;99.90;;;;;;4951614;29;20031;-61
2022/10/30 00:55:19;;;;;;;57.92;30.30;;;11.20;99.90;;;;;;4951796;28;20098;-63
2022/10/30 00:57:47;;;;;;;49.53;30.65;;;11.20;99.90;;;;;;4951622;28;20042;-64
2022/10/30 01:00:14;;;;;;;55.05;28.92;;;11.20;99.90;;;;;;4951552;28;20035;-61
2022/10/30 01:02:42;;;;;;;46.28;25.88;;;11.30;99.90;;;;;;4951724;28;20075;-61
2022/10/30 01:05:09;;;;;;;47.25;28.05;;;11.30;99.90;;;;;;4955606;28;20031;-62
2022/10/30 01:07:35;;;;;;;45.97;27.40;;;11.20;99.90;;;;;;4955603;28;20122;-62
2022/10/30 01:10:00;;;;;;;48.70;26.40;;;11.30;99.90;;;;;;4954302;29;20533;-60
2022/10/30 01:12:26;;;;;;;46.13;27.17;;;11.30;99.90;;;;;;4955491;29;20027;-60
2022/10/30 01:14:57;;;;;;;54.10;30.35;;;11.40;99.90;;;;;;4955317;29;20479;-60
2022/10/30 01:17:31;;;;;;;50.70;29.33;;;11.30;99.90;;;;;;4955287;28;20036;-61
2022/10/30 01:20:15;;;;;;;46.78;28.55;;;11.40;99.90;;;;;;4955622;29;20058;-61
2022/10/30 01:23:15;;;;;;;36.97;23.15;;;11.40;99.90;;;;;;4958820;28;20027;-64
2022/10/30 01:26:10;;;;;;;49.50;28.40;;;11.40;99.90;;;;;;4993738;28;20038;-60
2022/10/30 01:29:01;;;;;;;37.38;23.05;;;11.30;99.90;;;;;;4994223;28;20038;-60
2022/10/30 01:31:29;;;;;;;43.17;25.48;;;11.30;99.90;;;;;;4993906;28;20053;-62
2022/10/30 01:34:16;;;;;;;35.63;21.50;;;11.30;99.90;;;;;;4993679;28;20034;-61
2022/10/30 01:36:48;;;;;;;49.75;28.70;;;11.20;99.90;;;;;;4994008;28;20042;-62
2022/10/30 01:39:21;;;;;;;47.30;28.08;;;11.20;99.90;;;;;;4979838;28;20114;-61
2022/10/30 01:41:48;;;;;;;44.95;24.67;;;11.20;99.90;;;;;;4974267;28;20034;-61
2022/10/30 01:44:32;;;;;;;48.15;29.65;;;11.20;99.90;;;;;;4974310;28;20015;-60
2022/10/30 01:47:01;;;;;;;45.72;26.80;;;11.20;99.90;;;;;;4974267;28;20041;-63
2022/10/30 01:49:50;;;;;;;43.20;23.92;;;11.20;99.90;;;;;;4973841;28;20047;-62
2022/10/30 01:52:46;;;;;;;50.25;27.42;;;11.10;99.90;;;;;;4974337;28;20082;-63
2022/10/30 01:55:47;;;;;;;53.13;26.85;;;11.20;99.90;;;;;;4974044;28;20031;-60
2022/10/30 01:58:15;;;;;;;37.70;22.80;;;11.00;99.90;;;;;;4932960;29;20038;-61
2022/10/30 02:00:44;;;;;;;40.45;23.27;;;11.00;99.90;;;;;;4966151;28;20117;-63
2022/10/30 02:03:10;;;;;;;40.60;21.80;;;10.90;99.90;;;;;;4973984;28;20034;-61
2022/10/30 02:05:40;;;;;;;39.58;20.80;;;10.90;99.90;;;;;;4974174;28;20035;-64
2022/10/30 02:08:06;;;;;;;35.60;20.83;;;10.90;99.90;;;;;;4973741;28;20069;-61
2022/10/30 02:10:37;;;;;;;32.70;21.25;;;10.80;99.90;;;;;;4974329;28;20076;-61
2022/10/30 02:13:03;;;;;;;42.10;24.20;;;10.80;99.90;;;;;;4974036;28;20023;-64
2022/10/30 02:15:30;;;;;;;42.63;24.08;;;10.70;99.90;;;;;;4972743;28;20029;-61
2022/10/30 02:17:55;;;;;;;48.63;26.90;;;10.80;99.90;;;;;;4973800;28;20038;-61
2022/10/30 02:20:21;;;;;;;42.10;25.52;;;10.70;99.90;;;;;;4973511;28;20399;-62
2022/10/30 02:22:47;;;;;;;46.50;26.58;;;10.70;99.90;;;;;;4972250;28;20066;-62
2022/10/30 02:25:14;;;;;;;43.45;26.05;;;10.80;99.90;;;;;;4972126;28;20518;-60
2022/10/30 02:27:40;;;;;;;50.77;30.00;;;10.80;99.90;;;;;;4971857;28;20034;-61
2022/10/30 02:30:06;;;;;;;48.13;28.27;;;10.80;99.90;;;;;;4973052;28;20027;-60
2022/10/30 02:32:32;;;;;;;58.13;28.57;;;10.90;99.90;;;;;;4971825;28;20062;-63
2022/10/30 02:34:58;;;;;;;49.28;27.60;;;10.90;99.90;;;;;;4981743;28;20045;-64
2022/10/30 02:37:23;;;;;;;45.78;27.17;;;10.70;99.90;;;;;;4976159;28;20034;-60
2022/10/30 02:39:49;;;;;;;53.30;29.15;;;10.70;99.90;;;;;;4993125;28;20425;-60
2022/10/30 02:42:15;;;;;;;55.75;30.77;;;10.80;99.90;;;;;;4992975;28;20062;-60
2022/10/30 02:44:41;;;;;;;55.28;28.58;;;10.80;99.90;;;;;;4991818;28;20165;-61
2022/10/30 02:47:07;;;;;;;50.50;26.77;;;10.80;99.90;;;;;;4992770;28;20030;-61
2022/10/30 02:49:32;;;;;;;54.40;29.00;;;10.80;99.90;;;;;;4992737;28;20050;-61
2022/10/30 02:51:58;;;;;;;53.60;29.55;;;10.90;99.90;;;;;;4973440;28;20026;-61
2022/10/30 02:54:24;;;;;;;51.72;28.77;;;10.90;99.90;;;;;;4973739;28;20070;-62
2022/10/30 02:56:50;;;;;;;55.80;30.27;;;10.90;99.90;;;;;;4973477;28;20035;-61
2022/10/30 02:59:16;;;;;;;49.60;28.00;;;10.90;99.90;;;;;;4973575;28;20530;-60
2022/10/30 03:01:41;;;;;;;41.88;23.55;;;10.90;99.90;;;;;;4973241;28;20031;-61
2022/10/30 03:04:07;;;;;;;38.88;20.45;;;10.80;99.90;;;;;;4972047;28;20089;-61
2022/10/30 03:06:33;;;;;;;34.33;19.83;;;10.70;99.90;;;;;;4973157;28;20035;-61
2022/10/30 03:08:59;;;;;;;44.25;21.27;;;10.70;99.90;;;;;;4972980;28;20034;-63
2022/10/30 03:11:25;;;;;;;32.65;19.92;;;10.70;99.90;;;;;;4973340;28;20027;-64
2022/10/30 03:13:51;;;;;;;40.95;22.02;;;10.60;99.90;;;;;;4973032;28;20030;-63
2022/10/30 03:16:19;;;;;;;33.22;20.52;;;10.60;99.90;;;;;;4972705;28;20041;-63
2022/10/30 03:18:46;;;;;;;35.63;18.52;;;10.60;99.90;;;;;;4973047;28;20023;-60
2022/10/30 03:21:15;;;;;;;32.73;18.87;;;10.50;99.90;;;;;;4972633;28;20068;-63
2022/10/30 03:23:41;;;;;;;32.55;18.30;;;10.50;99.90;;;;;;4971524;28;20118;-63
2022/10/30 03:26:07;;;;;;;31.25;18.73;;;10.40;99.90;;;;;;4972496;28;20142;-63
2022/10/30 03:28:33;;;;;;;35.78;20.50;;;10.40;99.90;;;;;;4953274;29;20059;-62
2022/10/30 03:31:01;;;;;;;29.77;16.88;;;10.40;99.90;;;;;;4953470;28;20030;-61
2022/10/30 03:33:27;;;;;;;32.35;16.67;;;10.40;99.90;;;;;;4953338;28;20031;-62
2022/10/30 03:35:53;;;;;;;31.48;17.70;;;10.30;99.90;;;;;;4953527;28;20035;-61
2022/10/30 03:38:18;;;;;;;43.88;23.23;;;10.30;99.90;;;;;;4953093;29;20030;-60
2022/10/30 03:40:44;;;;;;;42.20;22.60;;;10.30;99.90;;;;;;4953201;29;20395;-61
2022/10/30 03:43:10;;;;;;;38.95;20.90;;;10.30;99.90;;;;;;4952947;29;20554;-64
2022/10/30 03:45:35;;;;;;;38.72;21.63;;;10.30;99.90;;;;;;4952879;29;20035;-60
2022/10/30 03:48:02;;;;;;;38.85;23.08;;;10.30;99.90;;;;;;4952744;29;20122;-61
2022/10/30 03:50:28;;;;;;;48.05;26.90;;;10.20;99.90;;;;;;4952971;28;20043;-58
2022/10/30 03:52:55;;;;;;;45.85;25.55;;;10.20;99.90;;;;;;4952936;28;20372;-60
2022/10/30 03:55:21;;;;;;;41.47;24.45;;;10.20;99.90;;;;;;4953000;28;20039;-61
2022/10/30 03:57:47;;;;;;;46.08;24.98;;;10.30;99.90;;;;;;4952610;28;20031;-63
2022/10/30 04:00:13;;;;;;;56.00;28.92;;;10.40;99.90;;;;;;4952981;29;20023;-61
2022/10/30 04:02:47;;;;;;;53.30;28.38;;;10.50;99.90;;;;;;4952779;28;20035;-59
2022/10/30 04:05:19;;;;;;;60.67;30.30;;;10.40;99.90;;;;;;4952863;28;20031;-63
2022/10/30 04:07:45;;;;;;;56.47;31.17;;;10.50;99.90;;;;;;4952544;28;20034;-61
2022/10/30 04:10:12;;;;;;;56.38;29.73;;;10.60;99.90;;;;;;4952957;28;20027;-62
2022/10/30 04:12:37;;;;;;;62.03;32.33;;;10.60;99.90;;;;;;4952727;28;20499;-59
2022/10/30 04:15:05;;;;;;;68.70;31.02;;;10.60;99.90;;;;;;4952639;29;20035;-60
2022/10/30 04:17:30;;;;;;;63.45;32.78;;;10.60;99.90;;;;;;4952740;28;20058;-63
2022/10/30 04:19:56;;;;;;;62.50;30.75;;;10.60;99.90;;;;;;4952373;29;20035;-61
2022/10/30 04:22:22;;;;;;;62.65;31.95;;;10.60;99.90;;;;;;4952509;28;20074;-61
2022/10/30 04:24:48;;;;;;;58.03;32.78;;;10.60;99.90;;;;;;4952201;29;20033;-61
2022/10/30 04:27:14;;;;;;;62.15;30.48;;;10.60;99.90;;;;;;4969495;28;20031;-63
2022/10/30 04:29:41;;;;;;;61.72;31.13;;;10.60;99.90;;;;;;4991272;28;20022;-63
2022/10/30 04:32:07;;;;;;;62.20;31.45;;;10.60;99.90;;;;;;4990750;28;20109;-60
2022/10/30 04:34:33;;;;;;;61.40;31.50;;;10.70;99.90;;;;;;4990936;28;20032;-63
2022/10/30 04:36:59;;;;;;;56.08;29.10;;;10.70;99.90;;;;;;4990638;28;20034;-62
2022/10/30 04:39:24;;;;;;;51.13;26.48;;;10.60;99.90;;;;;;4989043;28;20418;-60
2022/10/30 04:41:50;;;;;;;41.42;24.42;;;10.50;99.90;;;;;;4991056;28;20026;-62
2022/10/30 04:44:16;;;;;;;44.35;23.10;;;10.40;99.90;;;;;;4990781;28;20468;-62
2022/10/30 04:46:41;;;;;;;41.90;22.80;;;10.50;99.90;;;;;;4990717;28;20084;-61
2022/10/30 04:49:07;;;;;;;51.58;26.67;;;10.40;99.90;;;;;;4990569;28;20049;-60
2022/10/30 04:51:33;;;;;;;51.53;25.98;;;10.40;99.90;;;;;;4990546;28;20022;-61
2022/10/30 04:53:58;;;;;;;52.53;27.73;;;10.40;99.90;;;;;;4990578;28;20105;-59
2022/10/30 04:56:24;;;;;;;76.40;34.60;;;10.40;99.90;;;;;;4990902;28;20478;-60
2022/10/30 04:58:51;;;;;;;75.13;36.50;;;10.60;99.90;;;;;;4990785;28;20798;-64
2022/10/30 05:01:16;;;;;;;70.80;34.13;;;10.60;99.90;;;;;;4989486;28;20030;-60
2022/10/30 05:03:42;;;;;;;66.93;32.60;;;10.70;99.90;;;;;;4990737;28;20038;-60
2022/10/30 05:06:26;;;;;;;59.08;32.47;;;10.70;99.90;;;;;;4990386;28;20498;-60
2022/10/30 05:08:52;;;;;;;65.63;31.77;;;10.70;99.90;;;;;;4989205;28;20144;-61
2022/10/30 05:11:18;;;;;;;53.00;29.67;;;10.70;99.90;;;;;;4990523;28;20105;-61
2022/10/30 05:13:43;;;;;;;52.78;28.67;;;10.70;99.90;;;;;;4990680;28;20022;-62
2022/10/30 05:16:09;;;;;;;47.80;25.23;;;10.80;99.90;;;;;;4990606;28;20026;-62
2022/10/30 05:18:35;;;;;;;41.28;23.75;;;10.70;99.90;;;;;;4990844;28;20153;-64
2022/10/30 05:21:00;;;;;;;47.60;24.77;;;10.60;99.90;;;;;;4990453;28;20508;-61
2022/10/30 05:23:26;;;;;;;55.80;27.85;;;10.50;99.90;;;;;;4990608;28;20031;-59
2022/10/30 05:25:52;;;;;;;40.35;21.58;;;10.60;99.90;;;;;;4990599;28;20466;-60
2022/10/30 05:28:17;;;;;;;48.92;23.25;;;10.50;99.90;;;;;;4973502;28;20039;-61
2022/10/30 05:30:43;;;;;;;48.20;24.27;;;10.50;99.90;;;;;;4971270;28;20026;-63
2022/10/30 05:33:10;;;;;;;47.47;25.00;;;10.40;99.90;;;;;;4971050;28;20030;-63
2022/10/30 05:35:37;;;;;;;53.58;30.70;;;10.50;99.90;;;;;;4970811;28;20038;-63
2022/10/30 05:38:05;;;;;;;61.65;31.15;;;10.50;99.90;;;;;;4971019;28;20034;-61
2022/10/30 05:40:31;;;;;;;66.07;33.08;;;10.70;99.90;;;;;;4971070;28;20063;-62
2022/10/30 05:42:57;;;;;;;73.55;35.55;;;10.80;99.90;;;;;;4980782;28;20026;-62
2022/10/30 05:45:23;;;;;;;69.32;33.20;;;10.80;99.90;;;;;;4990521;28;20037;-63
2022/10/30 05:48:00;;;;;;;59.50;33.05;;;10.80;99.90;;;;;;4990025;28;20042;-62
2022/10/30 05:50:27;;;;;;;74.10;33.05;;;10.80;99.90;;;;;;4991484;28;20584;-59
2022/10/30 05:52:56;;;;;;;71.00;33.67;;;10.80;99.90;;;;;;4993669;28;20363;-63
2022/10/30 05:55:22;;;;;;;72.82;34.40;;;10.80;99.90;;;;;;4993837;28;20105;-61
2022/10/30 05:57:47;;;;;;;75.72;35.00;;;10.90;99.90;;;;;;4992522;28;20125;-61
2022/10/30 06:00:13;;;;;;;68.78;32.72;;;10.90;99.90;;;;;;4993855;28;20037;-64
2022/10/30 06:02:39;;;;;;;75.43;35.22;;;10.90;99.90;;;;;;4993606;28;20018;-62
2022/10/30 06:05:05;;;;;;;79.88;36.08;;;10.90;99.90;;;;;;4993745;28;20023;-63
2022/10/30 06:07:30;;;;;;;85.63;36.25;;;10.90;99.90;;;;;;4993724;28;20429;-64
2022/10/30 06:09:56;;;;;;;82.50;35.05;;;11.00;99.90;;;;;;4993616;28;20113;-62
2022/10/30 06:12:22;;;;;;;77.47;35.17;;;11.00;99.90;;;;;;4993704;28;20026;-60
2022/10/30 06:14:47;;;;;;;80.70;36.95;;;11.00;99.90;;;;;;4993581;28;20378;-60
2022/10/30 06:17:13;;;;;;;70.70;35.13;;;11.10;99.90;;;;;;4993366;28;20595;-61
2022/10/30 06:19:38;;;;;;;76.65;35.60;;;11.10;99.90;;;;;;4993362;28;20022;-64
2022/10/30 06:22:04;;;;;;;76.68;34.58;;;11.10;99.90;;;;;;4993656;28;20030;-62
2022/10/30 06:24:30;;;;;;;76.75;36.90;;;11.10;99.90;;;;;;4993554;28;20054;-60
2022/10/30 06:26:55;;;;;;;76.65;35.20;;;11.10;99.90;;;;;;4987913;28;20097;-63
2022/10/30 06:29:21;;;;;;;77.72;35.03;;;11.10;99.90;;;;;;4973917;28;20062;-62
2022/10/30 06:31:46;;;;;;;85.68;37.78;;;11.10;99.90;;;;;;4962255;28;20502;-58
2022/10/30 06:34:12;;;;;;;80.75;38.38;;;11.10;99.90;;;;;;4954254;29;20070;-60
2022/10/30 06:36:38;;;;;;;87.05;39.38;;;11.20;99.90;;;;;;4954425;28;20363;-60
2022/10/30 06:39:03;;;;;;;77.22;37.53;;;11.20;99.90;;;;;;4954580;29;20074;-65
2022/10/30 06:41:29;;;;;;;80.57;37.00;;;11.30;99.90;;;;;;4954495;29;20667;-64
2022/10/30 06:43:55;;;;;;;77.38;35.00;;;11.30;99.90;;;;;;4954475;29;20031;-62
2022/10/30 06:46:20;;;;;;;80.63;37.10;;;11.30;99.90;;;;;;4954142;29;20418;-63
2022/10/30 06:48:46;;;;;;;73.45;35.20;;;11.40;99.90;;;;;;4954002;29;20066;-60
2022/10/30 06:51:14;;;;;;;78.60;36.42;;;11.30;99.90;;;;;;4954291;29;20030;-59
2022/10/30 06:53:40;;;;;;;75.72;36.78;;;11.40;99.90;;;;;;4952753;29;20390;-61
2022/10/30 06:56:06;;;;;;;79.85;35.40;;;11.40;99.90;;;;;;4952391;29;20042;-63
2022/10/30 06:58:37;;;;;;;78.78;34.58;;;11.40;99.90;;;;;;4954077;28;20023;-62
2022/10/30 07:01:03;;;;;;;76.78;34.50;;;11.40;99.90;;;;;;4953359;28;20167;-62
2022/10/30 07:03:29;;;;;;;81.43;36.97;;;11.40;99.90;;;;;;4954114;28;20474;-63
2022/10/30 07:05:55;;;;;;;87.03;35.72;;;11.50;99.90;;;;;;4954067;28;20028;-62
2022/10/30 07:08:20;;;;;;;84.57;38.55;;;11.50;99.90;;;;;;4954008;28;20032;-62
2022/10/30 07:10:46;;;;;;;76.68;36.33;;;11.50;99.90;;;;;;4953940;29;20483;-64
2022/10/30 07:13:12;;;;;;;88.65;37.80;;;11.50;99.90;;;;;;4953671;29;20503;-63
2022/10/30 07:15:37;;;;;;;84.93;39.47;;;11.50;99.90;;;;;;4953261;29;20054;-59
2022/10/30 07:18:04;;;;;;;81.57;36.53;;;11.50;99.90;;;;;;4953662;29;20055;-60
2022/10/30 07:20:32;;;;;;;89.38;39.53;;;11.60;99.90;;;;;;4953780;28;20027;-64
2022/10/30 07:22:58;;;;;;;87.00;41.08;;;11.50;99.90;;;;;;4953512;28;20145;-63
2022/10/30 07:25:23;;;;;;;84.35;39.10;;;11.60;99.90;;;;;;4953515;29;20059;-62
2022/10/30 07:27:51;;;;;;;95.38;40.33;;;11.70;99.90;;;;;;4972579;28;20538;-61
2022/10/30 07:30:18;;;;;;;;;;;11.70;99.90;;;;;;4991130;28;20371;-63
2022/10/30 07:32:43;;;;;;;91.53;40.97;;;11.80;99.90;;;;;;4991780;28;20254;-65
2022/10/30 07:35:11;;;;;;;88.13;39.88;;;11.80;99.90;;;;;;4991754;28;20561;-63
2022/10/30 07:37:37;;;;;;;87.20;39.75;;;11.80;99.90;;;;;;4991854;28;20026;-63
2022/10/30 07:40:04;;;;;;;81.07;41.38;;;11.80;99.90;;;;;;4992029;28;20077;-64
2022/10/30 07:42:29;;;;;;;86.43;41.03;;;11.80;99.90;;;;;;4991947;28;20026;-59
2022/10/30 07:44:55;;;;;;;90.35;43.65;;;12.00;99.90;;;;;;4991617;28;20044;-60
2022/10/30 07:47:21;;;;;;;85.35;41.35;;;12.00;99.90;;;;;;4991757;28;20031;-60
2022/10/30 07:49:46;;;;;;;78.88;40.75;;;12.00;99.90;;;;;;4991547;28;20070;-61
2022/10/30 07:52:12;;;;;;;79.43;40.70;;;12.20;99.90;;;;;;4991725;28;20033;-64
2022/10/30 07:54:37;;;;;;;73.35;39.20;;;12.30;99.90;;;;;;4991801;28;20532;-63
2022/10/30 07:57:03;;;;;;;81.47;39.58;;;12.60;99.90;;;;;;4991453;28;20042;-62
2022/10/30 07:59:29;;;;;;;68.97;38.53;;;13.00;99.90;;;;;;4991119;28;20101;-63
2022/10/30 08:01:54;;;;;;;70.03;38.47;;;13.20;99.90;;;;;;4991648;28;20069;-64
2022/10/30 08:04:20;;;;;;;64.20;36.70;;;13.70;99.90;;;;;;4991307;28;20433;-60
2022/10/30 08:06:45;;;;;;;66.80;35.70;;;14.10;99.90;;;;;;4976429;28;20035;-59
2022/10/30 08:09:11;;;;;;;64.05;35.92;;;14.20;99.90;;;;;;4959699;28;20058;-62
2022/10/30 08:11:37;;;;;;;67.00;34.33;;;14.30;99.90;;;;;;4961637;28;20570;-63
2022/10/30 08:14:03;;;;;;;64.60;37.28;;;14.60;99.90;;;;;;4960382;28;20030;-63
2022/10/30 08:16:28;;;;;;;62.20;35.63;;;14.30;99.90;;;;;;4959813;28;20379;-62
2022/10/30 08:18:54;;;;;;;60.72;35.45;;;14.30;99.90;;;;;;4961710;28;20046;-59
2022/10/30 08:21:20;;;;;;;62.53;36.17;;;14.50;99.90;;;;;;4959464;28;20031;-60
2022/10/30 08:23:46;;;;;;;67.18;37.03;;;14.90;99.90;;;;;;4960299;28;20106;-61
2022/10/30 08:26:12;;;;;;;61.65;33.60;;;15.20;99.90;;;;;;4961783;28;20781;-60
2022/10/30 08:28:38;;;;;;;67.30;36.70;;;14.50;99.90;;;;;;4959024;28;20295;-66
2022/10/30 08:31:04;;;;;;;66.43;37.17;;;14.80;99.90;;;;;;4960398;28;20092;-62
2022/10/30 08:33:30;;;;;;;63.83;36.30;;;15.10;99.90;;;;;;4961816;28;20034;-60
2022/10/30 08:35:58;;;;;;;68.78;38.80;;;14.90;99.90;;;;;;4967026;28;20046;-60
2022/10/30 08:38:24;;;;;;;62.55;35.20;;;16.10;99.90;;;;;;4960789;28;20037;-60
2022/10/30 08:40:50;;;;;;;62.95;36.78;;;16.90;99.90;;;;;;4971437;28;20042;-61
2022/10/30 08:43:16;;;;;;;61.17;35.80;;;16.20;99.90;;;;;;4971009;28;20634;-61
2022/10/30 08:45:42;;;;;;;60.67;34.53;;;17.20;99.90;;;;;;4971613;28;20023;-62
2022/10/30 08:48:10;;;;;;;63.60;36.67;;;16.50;99.90;;;;;;4971535;28;20109;-63
2022/10/30 08:50:36;;;;;;;60.63;35.53;;;15.90;99.90;;;;;;4971362;28;20126;-63
2022/10/30 08:53:04;;;;;;;55.28;33.03;;;16.50;99.90;;;;;;4971395;28;20052;-64
2022/10/30 08:55:30;;;;;;;57.22;33.83;;;16.50;99.90;;;;;;4971198;28;20023;-63
2022/10/30 08:57:56;;;;;;;53.35;32.25;;;16.70;99.90;;;;;;4975178;28;20485;-62
2022/10/30 09:00:22;;;;;;;55.33;31.85;;;17.10;99.90;;;;;;4990835;28;20030;-62
2022/10/30 09:02:48;;;;;;;52.03;30.88;;;16.30;99.90;;;;;;4990775;28;20026;-61
2022/10/30 09:05:13;;;;;;;55.33;30.42;;;16.20;99.90;;;;;;4990616;28;20089;-61
2022/10/30 09:07:39;;;;;;;49.08;30.52;;;16.10;99.90;;;;;;4989656;28;20441;-62
2022/10/30 09:10:05;;;;;;;51.67;31.30;;;16.50;99.90;;;;;;4989837;28;20023;-62
2022/10/30 09:12:30;;;;;;;54.60;30.90;;;16.50;99.90;;;;;;4989948;28;20084;-61
2022/10/30 09:14:56;;;;;;;50.67;30.05;;;17.40;99.90;;;;;;4990574;28;20030;-60
2022/10/30 09:17:22;;;;;;;57.75;32.50;;;16.80;99.90;;;;;;4987905;28;20042;-58
2022/10/30 09:19:47;;;;;;;51.03;29.67;;;16.40;99.90;;;;;;4987445;28;20109;-60
2022/10/30 09:22:13;;;;;;;49.90;28.77;;;16.50;99.90;;;;;;4988558;28;20026;-60
2022/10/30 09:24:39;;;;;;;43.88;26.92;;;16.50;99.90;;;;;;4990101;28;20084;-62
2022/10/30 09:27:05;;;;;;;44.67;25.52;;;17.60;99.90;;;;;;4992581;28;20399;-61
2022/10/30 09:29:31;;;;;;;45.15;22.63;;;16.80;99.90;;;;;;4993184;28;20030;-61
2022/10/30 09:31:57;;;;;;;34.88;21.60;;;17.00;99.90;;;;;;4993504;28;20031;-61
2022/10/30 09:34:23;;;;;;;36.47;21.20;;;17.00;99.90;;;;;;4991869;28;20083;-62
2022/10/30 09:36:49;;;;;;;44.17;22.73;;;16.80;99.90;;;;;;4974773;28;20046;-59
2022/10/30 09:39:15;;;;;;;31.08;20.10;;;16.80;99.90;;;;;;4974089;28;20117;-59
2022/10/30 09:42:25;;;;;;;34.92;20.30;;;16.80;99.90;;;;;;4973876;28;20042;-61
2022/10/30 09:45:06;;;;;;;28.08;17.80;;;16.80;99.90;;;;;;4965440;28;20049;-61
2022/10/30 09:47:50;;;;;;;33.13;20.15;;;17.10;99.90;;;;;;4974374;28;20118;-60
2022/10/30 09:50:25;;;;;;;24.83;16.67;;;17.50;99.90;;;;;;4973086;28;20051;-61
2022/10/30 09:53:22;;;;;;;33.10;18.48;;;18.30;99.90;;;;;;4974691;28;20026;-59
2022/10/30 09:56:03;;;;;;;31.08;18.50;;;18.90;99.90;;;;;;4974647;28;20023;-62
2022/10/30 09:58:59;;;;;;;27.48;17.60;;;18.60;99.90;;;;;;4974605;28;20035;-60
2022/10/30 10:01:40;;;;;;;29.00;18.48;;;19.50;99.90;;;;;;4965538;28;20035;-62
2022/10/30 10:04:27;;;;;;;33.10;18.25;;;19.50;99.90;;;;;;4974382;28;20027;-63
2022/10/30 10:07:03;;;;;;;36.45;18.92;;;18.80;99.90;;;;;;4973973;28;20035;-63
2022/10/30 10:09:32;;;;;;;27.15;18.25;;;19.00;99.90;;;;;;4972767;28;20045;-60
2022/10/30 10:12:33;;;;;;;29.85;17.33;;;18.90;99.90;;;;;;4974183;28;20490;-61
2022/10/30 10:15:03;;;;;;;30.90;18.98;;;18.50;99.90;;;;;;4961166;28;20557;-62
2022/10/30 10:17:39;;;;;;;32.25;20.45;;;18.60;99.90;;;;;;4973825;28;20046;-61
2022/10/30 10:20:13;;;;;;;31.55;19.30;;;19.20;99.90;;;;;;4974305;28;20379;-61
2022/10/30 10:22:49;;;;;;;28.33;18.35;;;18.70;99.90;;;;;;4973911;28;20395;-62
2022/10/30 10:25:17;;;;;;;30.92;18.75;;;19.50;99.90;;;;;;4972633;28;20049;-62
2022/10/30 10:27:51;;;;;;;29.90;17.92;;;19.40;99.90;;;;;;4972019;28;20034;-62
2022/10/30 10:30:19;;;;;;;30.45;19.67;;;20.20;99.90;;;;;;4972007;28;20077;-58
2022/10/30 10:32:50;;;;;;;;;;;19.90;99.90;;;;;;4972478;28;20023;-61
2022/10/30 10:35:43;;;;;;;30.67;17.10;;;19.80;99.90;;;;;;4980936;28;19948;-58
2022/10/30 10:38:39;;;;;;;31.08;17.60;;;19.30;99.90;;;;;;4992138;28;20037;-58
2022/10/30 10:41:10;;;;;;;27.92;17.90;;;20.00;99.90;;;;;;4992865;28;20425;-63
2022/10/30 10:43:39;;;;;;;25.75;16.33;;;19.60;99.90;;;;;;4993274;28;20046;-57
2022/10/30 10:46:25;;;;;;;27.13;16.92;;;19.80;99.90;;;;;;4992655;28;20026;-60
2022/10/30 10:48:53;;;;;;;31.02;17.00;;;19.90;99.90;;;;;;4971171;28;20513;-58
2022/10/30 10:51:21;;;;;;;29.00;16.58;;;20.10;99.90;;;;;;4983429;28;20030;-61
2022/10/30 10:53:49;;;;;;;25.15;14.70;;;20.00;99.90;;;;;;4973628;28;20035;-61
2022/10/30 10:56:16;;;;;;;27.58;16.80;;;20.30;99.90;;;;;;4971732;28;20482;-61
2022/10/30 10:58:52;;;;;;;25.90;15.50;;;20.40;99.90;;;;;;4973281;28;20422;-58
2022/10/30 11:01:28;;;;;;;27.25;15.57;;;20.10;99.90;;;;;;4971909;28;20548;-65
2022/10/30 11:04:02;;;;;;;23.52;15.65;;;20.40;99.90;;;;;;4973238;28;20106;-58
2022/10/30 11:06:35;;;;;;;25.30;14.73;;;20.90;99.90;;;;;;4973196;28;20118;-61
2022/10/30 11:09:18;;;;;;;23.17;15.07;;;21.00;99.90;;;;;;4973088;28;20514;-64
2022/10/30 11:11:46;;;;;;;26.20;15.43;;;21.60;99.90;;;;;;4972997;28;20386;-60
2022/10/30 11:14:13;;;;;;;;;;;21.90;99.90;;;;;;4973587;28;20073;-60
2022/10/30 11:17:09;;;;;;;23.40;14.35;;;22.70;99.90;;;;;;4973055;28;19924;-60
2022/10/30 11:19:34;;;;;;;23.25;14.15;;;22.70;99.90;;;;;;4972907;28;20019;-60
2022/10/30 11:22:02;;;;;;;22.98;13.85;;;22.80;99.90;;;;;;4972742;28;20027;-60
2022/10/30 11:24:31;;;;;;;;;;;22.60;99.90;;;;;;4973138;28;20065;-59
2022/10/30 11:27:17;;;;;;;26.70;14.60;;;22.60;99.90;;;;;;4972950;28;19914;-59
2022/10/30 11:29:58;;;;;;;22.13;11.85;;;22.80;99.90;;;;;;4972492;28;20098;-62
2022/10/30 11:32:27;;;;;;;25.77;14.57;;;22.00;99.90;;;;;;4972713;28;20110;-59
2022/10/30 11:35:08;;;;;;;21.38;12.80;;;21.90;99.90;;;;;;4977004;28;20034;-60
2022/10/30 11:37:40;;;;;;;21.55;12.82;;;21.60;99.90;;;;;;4991781;28;20034;-60
2022/10/30 11:40:11;;;;;;;26.02;12.27;;;21.40;99.90;;;;;;4991912;28;20110;-60
2022/10/30 11:42:45;;;;;;;24.35;13.15;;;21.30;99.90;;;;;;4990360;28;20499;-60
2022/10/30 11:45:31;;;;;;;24.50;12.70;;;21.70;99.90;;;;;;4991683;28;20148;-61
2022/10/30 11:47:59;;;;;;;25.30;13.15;;;22.00;99.90;;;;;;4991451;28;20382;-60
2022/10/30 11:50:34;;;;;;;23.77;12.68;;;22.20;99.90;;;;;;4991899;28;20026;-61
2022/10/30 11:53:02;;;;;;;19.55;11.40;;;22.20;99.90;;;;;;4991218;28;20022;-62
2022/10/30 11:55:36;;;;;;;21.80;12.30;;;22.20;99.90;;;;;;4990825;28;20477;-61
2022/10/30 11:58:06;;;;;;;22.85;12.77;;;22.60;99.90;;;;;;4990803;28;20125;-62
2022/10/30 12:00:35;;;;;;;18.05;10.13;;;22.50;99.90;;;;;;4991350;28;20398;-58
2022/10/30 12:03:02;;;;;;;28.75;13.40;;;22.40;99.90;;;;;;4989614;28;20029;-58
2022/10/30 12:05:40;;;;;;;;;;;22.10;99.90;;;;;;4957042;28;20027;-57
2022/10/30 12:08:05;;;;;;;22.50;12.38;;;22.20;99.90;;;;;;4968803;28;20577;-58
2022/10/30 12:10:36;;;;;;;21.58;12.63;;;21.70;99.90;;;;;;4952463;28;20039;-61
2022/10/30 12:13:06;;;;;;;23.08;13.32;;;21.90;99.90;;;;;;4952656;28;20023;-60
2022/10/30 12:15:36;;;;;;;27.23;12.68;;;21.90;99.90;;;;;;4956172;28;20077;-63
2022/10/30 12:18:05;;;;;;;26.77;12.32;;;22.00;99.90;;;;;;4970854;28;20506;-59
2022/10/30 12:20:32;;;;;;;21.95;11.65;;;23.00;99.90;;;;;;4964666;28;20109;-61
2022/10/30 12:23:07;;;;;;;;;;;24.00;99.80;;;;;;4963036;28;20457;-60
2022/10/30 12:25:32;;;;;;;23.90;11.32;;;23.80;98.40;;;;;;4960549;28;19910;-63
2022/10/30 12:28:03;;;;;;;19.65;10.35;;;23.30;98.50;;;;;;4959265;28;20041;-63
2022/10/30 12:30:34;;;;;;;17.45;10.23;;;23.10;98.60;;;;;;4953438;28;20039;-62
2022/10/30 12:33:23;;;;;;;24.63;11.50;;;22.90;99.10;;;;;;4955885;28;20030;-61
2022/10/30 12:35:56;;;;;;;21.30;9.48;;;22.70;99.80;;;;;;4966372;28;20401;-61
2022/10/30 12:38:21;;;;;;;21.48;11.27;;;22.80;99.00;;;;;;4987203;28;20034;-63